KMPZ

Details ICAO KMPZ
Name MT PLEASANT MUNI
Region United States
Timezone America/Chicago (UTC-6.0)
Plans Departing 1
Arriving 0
Stats Elevation 734 ft / 224 m (AMSL)
Location 40.946837° -91.511207°
Runways 2
Magnetic Variation 0.769° W
Sunrise 2017-12-16 13:25:56 UTC / 2017-12-16 07:25:56 Local
Sunset 2017-12-16 22:40:25 UTC / 2017-12-16 16:40:25 Local
Advertisement - Login to hide

Runways

ID Width Length Bearing (true) Bearing (mag) Surface Threshold Offset Overrun Length
03 120 ft / 37 m 1,997 ft / 609 m 30.92° 31.69° Grass 0 ft / 0 m 0 ft / 0 m
15 75 ft / 23 m 4,003 ft / 1,220 m 152.50° 153.27° Asphalt 0 ft / 0 m 0 ft / 0 m
21 120 ft / 37 m 1,997 ft / 609 m 210.92° 211.69° Grass 0 ft / 0 m 0 ft / 0 m
33 75 ft / 23 m 4,003 ft / 1,220 m 332.51° 333.28° Asphalt 0 ft / 0 m 0 ft / 0 m

Map

Weather


0- 5 10 15 20 25 30 35+ Temperature / ° C

Clouds and Precipitation
Forecast for 2017-12-17 06:00 UTC. Updated 2 hours ago

Ground ~20,000 ft ~40,000 ft Winds

METAR

KMPZ 170235Z AUTO 00000KT 10SM CLR 03/M04 A2999 RMK AO2 T00291039

TAF

Not found

Frequencies

Recorded 119.32 MHz AWOS 3
Unicom 123.05 MHz CTAF/UNICOM
Warning: Do not use this data for real-world aviation or navigation. No guarantee of current accuracy is given.